sensor_id;sensor_type;location;lat;lon;timestamp;P1;durP1;ratioP1;P2;durP2;ratioP2
19004;SDS011;9635;52.078;8.648;2022-08-02T00:03:35;5.32;;;2.92;;
19004;SDS011;9635;52.078;8.648;2022-08-02T00:08:38;7.22;;;2.90;;
19004;SDS011;9635;52.078;8.648;2022-08-02T00:13:41;10.23;;;3.88;;
19004;SDS011;9635;52.078;8.648;2022-08-02T00:18:45;10.13;;;3.17;;
19004;SDS011;9635;52.078;8.648;2022-08-02T00:23:49;8.05;;;3.10;;
19004;SDS011;9635;52.078;8.648;2022-08-02T00:29:12;8.00;;;3.45;;
19004;SDS011;9635;52.078;8.648;2022-08-02T00:34:16;8.15;;;3.67;;
19004;SDS011;9635;52.078;8.648;2022-08-02T00:39:31;9.70;;;3.10;;
19004;SDS011;9635;52.078;8.648;2022-08-02T00:44:36;7.32;;;4.00;;
19004;SDS011;9635;52.078;8.648;2022-08-02T00:49:40;7.18;;;3.55;;
19004;SDS011;9635;52.078;8.648;2022-08-02T00:54:43;11.10;;;3.35;;
19004;SDS011;9635;52.078;8.648;2022-08-02T00:59:46;8.82;;;3.35;;
19004;SDS011;9635;52.078;8.648;2022-08-02T01:04:50;9.32;;;3.97;;
19004;SDS011;9635;52.078;8.648;2022-08-02T01:09:53;12.80;;;3.25;;
19004;SDS011;9635;52.078;8.648;2022-08-02T01:14:57;5.75;;;3.80;;
19004;SDS011;9635;52.078;8.648;2022-08-02T01:20:07;7.85;;;3.55;;
19004;SDS011;9635;52.078;8.648;2022-08-02T01:30:56;11.82;;;3.80;;
19004;SDS011;9635;52.078;8.648;2022-08-02T01:36:02;8.13;;;3.42;;
19004;SDS011;9635;52.078;8.648;2022-08-02T01:41:10;7.15;;;3.50;;
19004;SDS011;9635;52.078;8.648;2022-08-02T01:46:19;10.80;;;3.53;;
19004;SDS011;9635;52.078;8.648;2022-08-02T01:51:23;7.30;;;3.75;;
19004;SDS011;9635;52.078;8.648;2022-08-02T01:56:42;7.93;;;3.55;;
19004;SDS011;9635;52.078;8.648;2022-08-02T02:01:48;9.02;;;3.50;;
19004;SDS011;9635;52.078;8.648;2022-08-02T02:06:53;9.40;;;4.03;;
19004;SDS011;9635;52.078;8.648;2022-08-02T02:11:58;12.18;;;4.22;;
19004;SDS011;9635;52.078;8.648;2022-08-02T02:17:15;8.68;;;4.15;;
19004;SDS011;9635;52.078;8.648;2022-08-02T02:22:40;10.75;;;3.75;;
19004;SDS011;9635;52.078;8.648;2022-08-02T02:27:45;5.90;;;3.63;;
19004;SDS011;9635;52.078;8.648;2022-08-02T02:32:54;9.35;;;3.67;;
19004;SDS011;9635;52.078;8.648;2022-08-02T02:38:02;6.70;;;3.83;;
19004;SDS011;9635;52.078;8.648;2022-08-02T02:43:07;8.00;;;4.00;;
19004;SDS011;9635;52.078;8.648;2022-08-02T02:48:14;10.45;;;4.15;;
19004;SDS011;9635;52.078;8.648;2022-08-02T02:53:18;6.90;;;4.57;;
19004;SDS011;9635;52.078;8.648;2022-08-02T02:58:23;7.97;;;4.15;;
19004;SDS011;9635;52.078;8.648;2022-08-02T03:03:30;8.55;;;3.97;;
19004;SDS011;9635;52.078;8.648;2022-08-02T03:08:35;4.85;;;3.72;;
19004;SDS011;9635;52.078;8.648;2022-08-02T03:13:38;10.95;;;4.30;;
19004;SDS011;9635;52.078;8.648;2022-08-02T03:18:43;8.30;;;3.92;;
19004;SDS011;9635;52.078;8.648;2022-08-02T03:23:46;7.45;;;4.10;;
19004;SDS011;9635;52.078;8.648;2022-08-02T03:28:49;7.13;;;3.90;;
19004;SDS011;9635;52.078;8.648;2022-08-02T03:33:54;7.28;;;4.35;;
19004;SDS011;9635;52.078;8.648;2022-08-02T03:38:58;15.90;;;5.32;;
19004;SDS011;9635;52.078;8.648;2022-08-02T03:44:01;6.80;;;4.40;;
19004;SDS011;9635;52.078;8.648;2022-08-02T03:49:08;8.27;;;5.97;;
19004;SDS011;9635;52.078;8.648;2022-08-02T03:54:13;8.48;;;6.43;;
19004;SDS011;9635;52.078;8.648;2022-08-02T03:59:18;11.68;;;6.28;;
19004;SDS011;9635;52.078;8.648;2022-08-02T04:04:22;10.05;;;6.35;;
19004;SDS011;9635;52.078;8.648;2022-08-02T04:09:25;12.30;;;6.07;;
19004;SDS011;9635;52.078;8.648;2022-08-02T04:14:28;15.63;;;7.05;;
19004;SDS011;9635;52.078;8.648;2022-08-02T04:19:39;13.00;;;5.80;;
19004;SDS011;9635;52.078;8.648;2022-08-02T04:24:48;12.38;;;5.85;;
19004;SDS011;9635;52.078;8.648;2022-08-02T04:29:55;12.05;;;6.18;;
19004;SDS011;9635;52.078;8.648;2022-08-02T04:35:01;9.82;;;5.60;;
19004;SDS011;9635;52.078;8.648;2022-08-02T04:40:21;8.60;;;6.20;;
19004;SDS011;9635;52.078;8.648;2022-08-02T04:45:24;15.68;;;6.47;;
19004;SDS011;9635;52.078;8.648;2022-08-02T04:50:29;11.23;;;6.80;;
19004;SDS011;9635;52.078;8.648;2022-08-02T04:55:32;12.55;;;7.57;;
19004;SDS011;9635;52.078;8.648;2022-08-02T05:00:35;10.73;;;7.22;;
19004;SDS011;9635;52.078;8.648;2022-08-02T05:05:39;11.90;;;7.07;;
19004;SDS011;9635;52.078;8.648;2022-08-02T05:10:42;8.23;;;6.47;;
19004;SDS011;9635;52.078;8.648;2022-08-02T05:15:46;10.15;;;8.13;;
19004;SDS011;9635;52.078;8.648;2022-08-02T05:20:51;10.88;;;7.50;;
19004;SDS011;9635;52.078;8.648;2022-08-02T05:25:58;19.92;;;10.43;;
19004;SDS011;9635;52.078;8.648;2022-08-02T05:31:01;17.15;;;10.95;;
19004;SDS011;9635;52.078;8.648;2022-08-02T05:36:06;17.98;;;10.98;;
19004;SDS011;9635;52.078;8.648;2022-08-02T05:41:09;12.90;;;8.68;;
19004;SDS011;9635;52.078;8.648;2022-08-02T05:46:12;13.75;;;7.78;;
19004;SDS011;9635;52.078;8.648;2022-08-02T05:51:22;10.48;;;6.72;;
19004;SDS011;9635;52.078;8.648;2022-08-02T05:56:33;12.80;;;9.32;;
19004;SDS011;9635;52.078;8.648;2022-08-02T06:01:40;14.70;;;8.95;;
19004;SDS011;9635;52.078;8.648;2022-08-02T06:06:46;15.68;;;10.05;;
19004;SDS011;9635;52.078;8.648;2022-08-02T06:11:55;14.13;;;6.82;;
19004;SDS011;9635;52.078;8.648;2022-08-02T06:17:03;10.93;;;8.57;;
19004;SDS011;9635;52.078;8.648;2022-08-02T06:22:07;13.93;;;10.20;;
19004;SDS011;9635;52.078;8.648;2022-08-02T06:27:38;18.15;;;10.60;;
19004;SDS011;9635;52.078;8.648;2022-08-02T06:32:41;17.75;;;10.07;;
19004;SDS011;9635;52.078;8.648;2022-08-02T06:37:49;14.60;;;11.00;;
19004;SDS011;9635;52.078;8.648;2022-08-02T06:43:03;16.35;;;10.32;;
19004;SDS011;9635;52.078;8.648;2022-08-02T06:48:12;13.73;;;10.98;;
19004;SDS011;9635;52.078;8.648;2022-08-02T06:53:16;11.50;;;8.05;;
19004;SDS011;9635;52.078;8.648;2022-08-02T06:58:19;14.15;;;10.45;;
19004;SDS011;9635;52.078;8.648;2022-08-02T07:03:22;13.90;;;9.60;;
19004;SDS011;9635;52.078;8.648;2022-08-02T07:08:27;11.43;;;9.35;;
19004;SDS011;9635;52.078;8.648;2022-08-02T07:13:32;12.63;;;8.68;;
19004;SDS011;9635;52.078;8.648;2022-08-02T07:18:40;11.80;;;8.32;;
19004;SDS011;9635;52.078;8.648;2022-08-02T07:23:44;15.13;;;8.48;;
19004;SDS011;9635;52.078;8.648;2022-08-02T07:28:47;9.48;;;6.93;;
19004;SDS011;9635;52.078;8.648;2022-08-02T07:33:50;10.80;;;6.22;;
19004;SDS011;9635;52.078;8.648;2022-08-02T07:38:54;10.57;;;5.95;;
19004;SDS011;9635;52.078;8.648;2022-08-02T07:43:58;7.97;;;5.03;;
19004;SDS011;9635;52.078;8.648;2022-08-02T07:49:02;9.02;;;5.22;;
19004;SDS011;9635;52.078;8.648;2022-08-02T07:54:06;9.82;;;5.18;;
19004;SDS011;9635;52.078;8.648;2022-08-02T07:59:10;6.43;;;4.30;;
19004;SDS011;9635;52.078;8.648;2022-08-02T08:04:13;5.85;;;3.50;;
19004;SDS011;9635;52.078;8.648;2022-08-02T08:09:17;8.43;;;3.47;;
19004;SDS011;9635;52.078;8.648;2022-08-02T08:14:21;9.32;;;3.85;;
19004;SDS011;9635;52.078;8.648;2022-08-02T08:19:23;6.32;;;3.80;;
19004;SDS011;9635;52.078;8.648;2022-08-02T08:30:25;10.18;;;3.65;;
19004;SDS011;9635;52.078;8.648;2022-08-02T08:35:28;4.70;;;3.38;;
19004;SDS011;9635;52.078;8.648;2022-08-02T08:40:31;6.30;;;2.30;;
19004;SDS011;9635;52.078;8.648;2022-08-02T08:45:35;6.70;;;2.55;;
19004;SDS011;9635;52.078;8.648;2022-08-02T08:50:40;3.70;;;2.40;;
19004;SDS011;9635;52.078;8.648;2022-08-02T08:55:50;5.93;;;2.25;;
19004;SDS011;9635;52.078;8.648;2022-08-02T09:00:57;4.57;;;2.42;;
19004;SDS011;9635;52.078;8.648;2022-08-02T09:06:01;3.75;;;2.30;;
19004;SDS011;9635;52.078;8.648;2022-08-02T09:11:10;6.85;;;2.10;;
19004;SDS011;9635;52.078;8.648;2022-08-02T09:16:16;4.88;;;1.73;;
19004;SDS011;9635;52.078;8.648;2022-08-02T09:21:33;7.65;;;1.92;;
19004;SDS011;9635;52.078;8.648;2022-08-02T09:26:37;4.68;;;2.55;;
19004;SDS011;9635;52.078;8.648;2022-08-02T09:31:41;3.33;;;2.10;;
19004;SDS011;9635;52.078;8.648;2022-08-02T09:36:50;4.70;;;2.10;;
19004;SDS011;9635;52.078;8.648;2022-08-02T09:41:55;4.10;;;2.47;;
19004;SDS011;9635;52.078;8.648;2022-08-02T09:47:16;8.73;;;2.55;;
19004;SDS011;9635;52.078;8.648;2022-08-02T09:52:22;2.95;;;1.85;;
19004;SDS011;9635;52.078;8.648;2022-08-02T09:57:44;2.55;;;1.90;;
19004;SDS011;9635;52.078;8.648;2022-08-02T10:03:05;6.35;;;2.20;;
19004;SDS011;9635;52.078;8.648;2022-08-02T10:08:13;5.20;;;2.93;;
19004;SDS011;9635;52.078;8.648;2022-08-02T10:13:16;4.95;;;2.30;;
19004;SDS011;9635;52.078;8.648;2022-08-02T10:18:23;8.15;;;1.90;;
19004;SDS011;9635;52.078;8.648;2022-08-02T10:23:40;4.13;;;2.80;;
19004;SDS011;9635;52.078;8.648;2022-08-02T10:28:46;5.97;;;2.85;;
19004;SDS011;9635;52.078;8.648;2022-08-02T10:33:52;5.60;;;2.90;;
19004;SDS011;9635;52.078;8.648;2022-08-02T10:38:57;3.95;;;2.50;;
19004;SDS011;9635;52.078;8.648;2022-08-02T10:44:02;4.60;;;2.97;;
19004;SDS011;9635;52.078;8.648;2022-08-02T10:49:10;11.45;;;2.75;;
19004;SDS011;9635;52.078;8.648;2022-08-02T10:54:35;6.60;;;2.55;;
19004;SDS011;9635;52.078;8.648;2022-08-02T10:59:40;5.18;;;2.80;;
19004;SDS011;9635;52.078;8.648;2022-08-02T11:15:45;3.45;;;2.50;;
19004;SDS011;9635;52.078;8.648;2022-08-02T11:26:42;2.13;;;2.00;;
19004;SDS011;9635;52.078;8.648;2022-08-02T11:31:47;3.40;;;2.03;;
19004;SDS011;9635;52.078;8.648;2022-08-02T11:36:51;3.00;;;2.13;;
19004;SDS011;9635;52.078;8.648;2022-08-02T11:41:55;2.42;;;2.22;;
19004;SDS011;9635;52.078;8.648;2022-08-02T11:47:00;3.22;;;2.05;;
19004;SDS011;9635;52.078;8.648;2022-08-02T11:52:06;4.68;;;2.83;;
19004;SDS011;9635;52.078;8.648;2022-08-02T11:57:12;4.20;;;2.35;;
19004;SDS011;9635;52.078;8.648;2022-08-02T12:02:21;2.58;;;2.00;;
19004;SDS011;9635;52.078;8.648;2022-08-02T12:07:27;2.90;;;2.58;;
19004;SDS011;9635;52.078;8.648;2022-08-02T12:12:45;4.47;;;1.88;;
19004;SDS011;9635;52.078;8.648;2022-08-02T12:17:49;3.08;;;2.28;;
19004;SDS011;9635;52.078;8.648;2022-08-02T12:23:11;1.83;;;1.73;;
19004;SDS011;9635;52.078;8.648;2022-08-02T12:28:14;3.53;;;1.75;;
19004;SDS011;9635;52.078;8.648;2022-08-02T12:33:19;2.15;;;2.00;;
19004;SDS011;9635;52.078;8.648;2022-08-02T12:38:23;3.50;;;2.08;;
19004;SDS011;9635;52.078;8.648;2022-08-02T12:43:26;5.30;;;2.17;;
19004;SDS011;9635;52.078;8.648;2022-08-02T12:48:30;2.55;;;2.03;;
19004;SDS011;9635;52.078;8.648;2022-08-02T12:53:39;2.50;;;1.80;;
19004;SDS011;9635;52.078;8.648;2022-08-02T12:58:47;2.70;;;2.25;;
19004;SDS011;9635;52.078;8.648;2022-08-02T13:03:50;2.08;;;1.45;;
19004;SDS011;9635;52.078;8.648;2022-08-02T13:09:15;2.88;;;2.00;;
19004;SDS011;9635;52.078;8.648;2022-08-02T13:14:18;4.38;;;2.50;;
19004;SDS011;9635;52.078;8.648;2022-08-02T13:19:21;3.35;;;2.95;;
19004;SDS011;9635;52.078;8.648;2022-08-02T13:24:25;2.70;;;2.22;;
19004;SDS011;9635;52.078;8.648;2022-08-02T13:29:40;2.20;;;2.00;;
19004;SDS011;9635;52.078;8.648;2022-08-02T13:34:43;3.05;;;2.17;;
19004;SDS011;9635;52.078;8.648;2022-08-02T13:39:48;5.20;;;2.50;;
19004;SDS011;9635;52.078;8.648;2022-08-02T13:45:11;3.03;;;2.10;;
19004;SDS011;9635;52.078;8.648;2022-08-02T13:50:15;2.58;;;2.30;;
19004;SDS011;9635;52.078;8.648;2022-08-02T13:55:19;4.28;;;1.98;;
19004;SDS011;9635;52.078;8.648;2022-08-02T14:00:22;2.03;;;1.90;;
19004;SDS011;9635;52.078;8.648;2022-08-02T14:05:36;3.50;;;1.95;;
19004;SDS011;9635;52.078;8.648;2022-08-02T14:10:50;4.65;;;2.10;;
19004;SDS011;9635;52.078;8.648;2022-08-02T14:15:53;4.18;;;2.13;;
19004;SDS011;9635;52.078;8.648;2022-08-02T14:20:56;2.03;;;1.70;;
19004;SDS011;9635;52.078;8.648;2022-08-02T14:26:00;1.88;;;1.75;;
19004;SDS011;9635;52.078;8.648;2022-08-02T14:31:05;7.50;;;2.05;;
19004;SDS011;9635;52.078;8.648;2022-08-02T14:36:12;2.72;;;2.10;;
19004;SDS011;9635;52.078;8.648;2022-08-02T14:41:16;2.55;;;2.08;;
19004;SDS011;9635;52.078;8.648;2022-08-02T14:46:19;2.72;;;1.98;;
19004;SDS011;9635;52.078;8.648;2022-08-02T14:51:21;3.28;;;1.70;;
19004;SDS011;9635;52.078;8.648;2022-08-02T14:56:26;3.60;;;1.95;;
19004;SDS011;9635;52.078;8.648;2022-08-02T15:01:29;3.03;;;2.70;;
19004;SDS011;9635;52.078;8.648;2022-08-02T15:06:32;5.28;;;2.13;;
19004;SDS011;9635;52.078;8.648;2022-08-02T15:11:36;2.40;;;2.20;;
19004;SDS011;9635;52.078;8.648;2022-08-02T15:16:49;2.55;;;2.20;;
19004;SDS011;9635;52.078;8.648;2022-08-02T15:21:59;2.60;;;1.80;;
19004;SDS011;9635;52.078;8.648;2022-08-02T15:27:14;6.35;;;2.30;;
19004;SDS011;9635;52.078;8.648;2022-08-02T15:32:18;5.05;;;2.65;;
19004;SDS011;9635;52.078;8.648;2022-08-02T15:37:21;3.25;;;2.60;;
19004;SDS011;9635;52.078;8.648;2022-08-02T15:42:27;4.68;;;2.25;;
19004;SDS011;9635;52.078;8.648;2022-08-02T15:47:31;2.55;;;2.35;;
19004;SDS011;9635;52.078;8.648;2022-08-02T15:52:34;2.85;;;2.63;;
19004;SDS011;9635;52.078;8.648;2022-08-02T15:57:39;4.88;;;2.80;;
19004;SDS011;9635;52.078;8.648;2022-08-02T16:02:42;5.32;;;2.45;;
19004;SDS011;9635;52.078;8.648;2022-08-02T16:14:35;2.80;;;2.40;;
19004;SDS011;9635;52.078;8.648;2022-08-02T16:19:38;3.45;;;2.40;;
19004;SDS011;9635;52.078;8.648;2022-08-02T16:24:50;3.55;;;2.58;;
19004;SDS011;9635;52.078;8.648;2022-08-02T16:29:54;3.67;;;2.53;;
19004;SDS011;9635;52.078;8.648;2022-08-02T16:34:57;2.55;;;2.35;;
19004;SDS011;9635;52.078;8.648;2022-08-02T16:40:09;3.70;;;2.40;;
19004;SDS011;9635;52.078;8.648;2022-08-02T16:45:14;3.35;;;2.55;;
19004;SDS011;9635;52.078;8.648;2022-08-02T16:50:21;2.83;;;2.22;;
19004;SDS011;9635;52.078;8.648;2022-08-02T16:55:29;5.50;;;2.50;;
19004;SDS011;9635;52.078;8.648;2022-08-02T17:00:33;3.70;;;2.15;;
19004;SDS011;9635;52.078;8.648;2022-08-02T17:05:36;3.40;;;2.30;;
19004;SDS011;9635;52.078;8.648;2022-08-02T17:10:57;2.78;;;2.40;;
19004;SDS011;9635;52.078;8.648;2022-08-02T17:16:05;3.28;;;2.75;;
19004;SDS011;9635;52.078;8.648;2022-08-02T17:21:26;3.22;;;2.53;;
19004;SDS011;9635;52.078;8.648;2022-08-02T17:26:29;2.60;;;2.40;;
19004;SDS011;9635;52.078;8.648;2022-08-02T17:31:33;3.33;;;2.53;;
19004;SDS011;9635;52.078;8.648;2022-08-02T17:36:46;5.28;;;2.38;;
19004;SDS011;9635;52.078;8.648;2022-08-02T17:41:50;3.25;;;2.30;;
19004;SDS011;9635;52.078;8.648;2022-08-02T17:46:54;3.65;;;1.90;;
19004;SDS011;9635;52.078;8.648;2022-08-02T17:51:57;2.10;;;1.90;;
19004;SDS011;9635;52.078;8.648;2022-08-02T17:57:22;2.40;;;2.15;;
19004;SDS011;9635;52.078;8.648;2022-08-02T18:02:46;6.00;;;2.22;;
19004;SDS011;9635;52.078;8.648;2022-08-02T18:07:55;2.88;;;2.00;;
19004;SDS011;9635;52.078;8.648;2022-08-02T18:13:01;2.92;;;2.15;;
19004;SDS011;9635;52.078;8.648;2022-08-02T18:18:07;2.60;;;1.92;;
19004;SDS011;9635;52.078;8.648;2022-08-02T18:23:09;3.47;;;2.28;;
19004;SDS011;9635;52.078;8.648;2022-08-02T18:28:14;3.05;;;1.80;;
19004;SDS011;9635;52.078;8.648;2022-08-02T18:33:18;2.30;;;1.70;;
19004;SDS011;9635;52.078;8.648;2022-08-02T18:38:41;3.85;;;2.10;;
19004;SDS011;9635;52.078;8.648;2022-08-02T18:43:46;2.95;;;2.15;;
19004;SDS011;9635;52.078;8.648;2022-08-02T18:48:51;3.03;;;1.95;;
19004;SDS011;9635;52.078;8.648;2022-08-02T18:53:56;3.05;;;2.03;;
19004;SDS011;9635;52.078;8.648;2022-08-02T18:58:59;3.92;;;2.38;;
19004;SDS011;9635;52.078;8.648;2022-08-02T19:04:05;2.63;;;2.42;;
19004;SDS011;9635;52.078;8.648;2022-08-02T19:09:09;2.80;;;2.28;;
19004;SDS011;9635;52.078;8.648;2022-08-02T19:14:13;3.00;;;2.05;;
19004;SDS011;9635;52.078;8.648;2022-08-02T19:19:29;2.45;;;2.15;;
19004;SDS011;9635;52.078;8.648;2022-08-02T19:24:33;3.63;;;2.72;;
19004;SDS011;9635;52.078;8.648;2022-08-02T19:29:37;3.72;;;2.10;;
19004;SDS011;9635;52.078;8.648;2022-08-02T19:35:01;2.35;;;2.10;;
19004;SDS011;9635;52.078;8.648;2022-08-02T19:40:24;7.05;;;2.42;;
19004;SDS011;9635;52.078;8.648;2022-08-02T19:45:29;8.75;;;3.42;;
19004;SDS011;9635;52.078;8.648;2022-08-02T19:50:53;3.40;;;3.10;;
19004;SDS011;9635;52.078;8.648;2022-08-02T19:56:02;8.40;;;3.15;;
19004;SDS011;9635;52.078;8.648;2022-08-02T20:01:05;3.00;;;2.72;;
19004;SDS011;9635;52.078;8.648;2022-08-02T20:06:18;3.17;;;2.87;;
19004;SDS011;9635;52.078;8.648;2022-08-02T20:11:41;4.82;;;2.83;;
19004;SDS011;9635;52.078;8.648;2022-08-02T20:16:43;3.20;;;2.67;;
19004;SDS011;9635;52.078;8.648;2022-08-02T20:21:51;5.40;;;3.08;;
19004;SDS011;9635;52.078;8.648;2022-08-02T20:27:00;4.88;;;2.70;;
19004;SDS011;9635;52.078;8.648;2022-08-02T20:32:04;4.20;;;2.33;;
19004;SDS011;9635;52.078;8.648;2022-08-02T20:37:09;3.15;;;2.58;;
19004;SDS011;9635;52.078;8.648;2022-08-02T20:42:32;5.45;;;2.53;;
19004;SDS011;9635;52.078;8.648;2022-08-02T20:47:35;2.95;;;2.60;;
19004;SDS011;9635;52.078;8.648;2022-08-02T20:52:41;3.33;;;2.72;;
19004;SDS011;9635;52.078;8.648;2022-08-02T20:57:44;9.07;;;2.80;;
19004;SDS011;9635;52.078;8.648;2022-08-02T21:03:02;4.22;;;2.60;;
19004;SDS011;9635;52.078;8.648;2022-08-02T21:08:08;2.80;;;2.60;;
19004;SDS011;9635;52.078;8.648;2022-08-02T21:13:33;3.60;;;2.70;;
19004;SDS011;9635;52.078;8.648;2022-08-02T21:18:47;3.28;;;2.85;;
19004;SDS011;9635;52.078;8.648;2022-08-02T21:23:52;4.00;;;3.05;;
19004;SDS011;9635;52.078;8.648;2022-08-02T21:28:55;3.45;;;3.15;;
19004;SDS011;9635;52.078;8.648;2022-08-02T21:34:01;3.40;;;3.10;;
19004;SDS011;9635;52.078;8.648;2022-08-02T21:39:24;4.47;;;2.97;;
19004;SDS011;9635;52.078;8.648;2022-08-02T21:44:27;3.33;;;2.65;;
19004;SDS011;9635;52.078;8.648;2022-08-02T21:49:30;4.07;;;3.30;;
19004;SDS011;9635;52.078;8.648;2022-08-02T21:54:54;4.85;;;3.60;;
19004;SDS011;9635;52.078;8.648;2022-08-02T21:59:58;4.18;;;3.75;;
19004;SDS011;9635;52.078;8.648;2022-08-02T22:05:01;6.28;;;4.15;;
19004;SDS011;9635;52.078;8.648;2022-08-02T22:10:06;4.78;;;4.30;;
19004;SDS011;9635;52.078;8.648;2022-08-02T22:15:10;6.95;;;4.78;;
19004;SDS011;9635;52.078;8.648;2022-08-02T22:20:14;6.00;;;4.13;;
19004;SDS011;9635;52.078;8.648;2022-08-02T22:25:22;8.13;;;4.32;;
19004;SDS011;9635;52.078;8.648;2022-08-02T22:30:37;6.07;;;5.20;;
19004;SDS011;9635;52.078;8.648;2022-08-02T22:35:41;8.70;;;5.35;;
19004;SDS011;9635;52.078;8.648;2022-08-02T22:40:45;10.13;;;5.63;;
19004;SDS011;9635;52.078;8.648;2022-08-02T22:45:49;8.07;;;6.00;;
19004;SDS011;9635;52.078;8.648;2022-08-02T22:50:52;6.63;;;5.50;;
19004;SDS011;9635;52.078;8.648;2022-08-02T22:55:57;5.55;;;5.13;;
19004;SDS011;9635;52.078;8.648;2022-08-02T23:01:00;7.00;;;5.28;;
19004;SDS011;9635;52.078;8.648;2022-08-02T23:06:03;9.00;;;5.57;;
19004;SDS011;9635;52.078;8.648;2022-08-02T23:11:08;6.70;;;5.93;;
19004;SDS011;9635;52.078;8.648;2022-08-02T23:16:10;7.10;;;5.72;;
19004;SDS011;9635;52.078;8.648;2022-08-02T23:21:31;7.63;;;6.35;;
19004;SDS011;9635;52.078;8.648;2022-08-02T23:26:56;8.43;;;6.43;;
19004;SDS011;9635;52.078;8.648;2022-08-02T23:31:59;10.02;;;6.90;;
19004;SDS011;9635;52.078;8.648;2022-08-02T23:37:01;8.73;;;6.95;;
19004;SDS011;9635;52.078;8.648;2022-08-02T23:42:06;9.38;;;6.60;;
19004;SDS011;9635;52.078;8.648;2022-08-02T23:47:09;7.57;;;6.85;;
19004;SDS011;9635;52.078;8.648;2022-08-02T23:52:12;7.68;;;6.70;;
19004;SDS011;9635;52.078;8.648;2022-08-02T23:57:17;10.18;;;6.95;;
